createdAt,value
2017-06-16T19:09:02.421Z,1022.22
2017-06-16T19:10:11.496Z,1022.16
2017-06-16T19:11:21.513Z,1022.23
2017-06-16T19:12:31.527Z,1022.26
2017-06-16T19:13:40.907Z,1022.26
2017-06-16T19:14:50.932Z,1022.25
2017-06-16T19:16:00.628Z,1022.26
2017-06-16T19:17:10.648Z,1022.23
2017-06-16T19:18:19.718Z,1022.25
2017-06-16T19:19:30.043Z,1022.27
2017-06-16T19:20:39.425Z,1022.24
2017-06-16T19:21:49.443Z,1022.23
2017-06-16T19:22:59.143Z,1022.26
2017-06-16T19:24:09.472Z,1022.22
2017-06-16T19:25:19.481Z,1022.26
2017-06-16T19:26:28.864Z,1022.24
2017-06-16T19:27:38.557Z,1022.29
2017-06-16T19:28:48.252Z,1022.3
2017-06-16T19:29:57.633Z,1022.27
2017-06-16T19:31:07.648Z,1022.29
2017-06-16T19:32:17.052Z,1022.33
2017-06-16T19:33:27.428Z,1022.29
2017-06-16T19:34:37.149Z,1022.32
2017-06-16T19:35:46.567Z,1022.32
2017-06-16T19:36:56.589Z,1022.3
2017-06-16T19:38:06.310Z,1022.33
2017-06-16T19:39:16.377Z,1022.32
2017-06-16T19:40:26.387Z,1022.33
2017-06-16T19:41:36.091Z,1022.34
2017-06-16T19:42:46.104Z,1022.33
2017-06-16T19:43:55.850Z,1022.33
2017-06-16T19:45:05.858Z,1022.34
2017-06-16T19:46:15.561Z,1022.36
2017-06-16T19:47:25.881Z,1022.33
2017-06-16T19:48:34.961Z,1022.38
2017-06-16T19:49:44.973Z,1022.4
2017-06-16T19:50:54.378Z,1022.4
2017-06-16T19:52:04.071Z,1022.41
2017-06-16T19:53:13.768Z,1022.42
2017-06-16T19:54:24.089Z,1022.47
2017-06-16T19:55:33.788Z,1022.52
2017-06-16T19:56:43.506Z,1022.52
2017-06-16T19:57:53.223Z,1022.63
2017-06-16T19:59:03.230Z,1022.59
2017-06-16T20:00:12.610Z,1022.63
2017-06-16T20:01:22.303Z,1022.63
2017-06-16T20:02:32.631Z,1022.65
2017-06-16T20:03:42.654Z,1022.61
2017-06-16T20:04:52.668Z,1022.63
2017-06-16T20:06:02.680Z,1022.62
2017-06-16T20:07:12.374Z,1022.63
2017-06-16T20:08:22.382Z,1022.63
2017-06-16T20:09:32.392Z,1022.65
2017-06-16T20:10:42.102Z,1022.64
2017-06-16T20:11:51.799Z,1022.7
2017-06-16T20:13:02.142Z,1022.7
2017-06-16T20:14:11.835Z,1022.72
2017-06-16T20:15:21.543Z,1022.72
2017-06-16T20:16:31.239Z,1022.71
2017-06-16T20:17:40.934Z,1022.71
2017-06-16T20:18:50.626Z,1022.75
2017-06-16T20:20:00.640Z,1022.74
2017-06-16T20:21:10.021Z,1022.73
2017-06-16T20:22:19.086Z,1022.7
2017-06-16T20:23:28.782Z,1022.72
2017-06-16T20:24:38.162Z,1022.74
2017-06-16T20:25:47.543Z,1022.73
2017-06-16T20:26:56.930Z,1022.75
2017-06-16T20:28:06.316Z,1022.73
2017-06-16T20:29:15.695Z,1022.73
2017-06-16T20:30:25.386Z,1022.75
2017-06-16T20:31:35.392Z,1022.77
2017-06-16T20:32:45.090Z,1022.77
2017-06-16T20:33:54.785Z,1022.76
2017-06-16T20:35:04.483Z,1022.78
2017-06-16T20:36:14.179Z,1022.8
2017-06-16T20:37:24.526Z,1022.81
2017-06-16T20:38:33.597Z,1022.82
2017-06-16T20:39:43.292Z,1022.83
2017-06-16T20:40:52.986Z,1022.81
2017-06-16T20:42:02.052Z,1022.8
2017-06-16T20:43:11.750Z,1022.86
2017-06-16T20:44:21.757Z,1022.85
2017-06-16T20:45:31.455Z,1022.82
2017-06-16T20:46:41.150Z,1022.83
2017-06-16T20:47:51.174Z,1022.77
2017-06-16T20:49:01.184Z,1022.79
2017-06-16T20:50:11.195Z,1022.82
2017-06-16T20:51:20.920Z,1022.82
2017-06-16T20:52:30.614Z,1022.79
2017-06-16T20:53:40.308Z,1022.77
2017-06-16T20:54:50.011Z,1022.78
2017-06-16T20:55:59.716Z,1022.81
2017-06-16T20:57:09.739Z,1022.78
2017-06-16T20:58:19.441Z,1022.76
2017-06-16T20:59:29.449Z,1022.82
2017-06-16T21:00:39.456Z,1022.76
2017-06-16T21:01:49.151Z,1022.7
2017-06-16T21:02:58.842Z,1022.79
2017-06-16T21:04:08.537Z,1022.79
2017-06-16T21:05:18.227Z,1022.78
2017-06-16T21:06:28.246Z,1022.82
2017-06-16T21:07:38.255Z,1022.79
2017-06-16T21:08:48.265Z,1022.8
2017-06-16T21:09:57.962Z,1022.77
2017-06-16T21:11:07.348Z,1022.77
2017-06-16T21:12:17.674Z,1022.77
2017-06-16T21:13:27.693Z,1022.74
2017-06-16T21:14:38.008Z,1022.78
2017-06-16T21:15:48.025Z,1022.75
2017-06-16T21:16:56.880Z,1022.76
2017-06-16T21:18:06.608Z,1022.75
2017-06-16T21:19:16.698Z,1022.75
2017-06-16T21:20:26.779Z,1022.78
2017-06-16T21:21:36.237Z,1022.71
2017-06-16T21:22:46.035Z,1022.81
2017-06-16T21:23:56.437Z,1022.75
2017-06-16T21:25:06.496Z,1022.72
2017-06-16T21:26:15.930Z,1022.73
2017-06-16T21:27:25.665Z,1022.71
2017-06-16T21:28:35.412Z,1022.74
2017-06-16T21:29:45.189Z,1022.72
2017-06-16T21:30:54.935Z,1022.77
2017-06-16T21:32:05.331Z,1022.75
2017-06-16T21:33:15.391Z,1022.8
2017-06-16T21:34:25.151Z,1022.81
2017-06-16T21:35:35.187Z,1022.79
2017-06-16T21:36:44.950Z,1022.82
2017-06-16T21:37:54.669Z,1022.87
2017-06-16T21:39:04.430Z,1022.85
2017-06-16T21:40:14.178Z,1022.82
2017-06-16T21:41:23.954Z,1022.86
2017-06-16T21:42:33.391Z,1022.92
2017-06-16T21:43:43.480Z,1022.93
2017-06-16T21:44:52.582Z,1022.9
2017-06-16T21:46:02.014Z,1022.93
2017-06-16T21:47:12.083Z,1022.9
2017-06-16T21:48:21.255Z,1022.9
2017-06-16T21:49:30.322Z,1022.98
2017-06-16T21:50:40.393Z,1022.95
2017-06-16T21:51:50.140Z,1022.97
2017-06-16T21:52:59.620Z,1022.96
2017-06-16T21:54:09.416Z,1023.01
2017-06-16T21:55:19.149Z,1023.02
2017-06-16T21:56:29.299Z,1023.01
2017-06-16T21:57:39.751Z,1023.02
2017-06-16T21:58:49.841Z,1023.02
2017-06-16T21:59:59.541Z,1023.04
2017-06-16T22:01:09.554Z,1023.02
2017-06-16T22:02:19.565Z,1023.03
2017-06-16T22:03:29.572Z,1023.04
2017-06-16T22:04:38.953Z,1023.04
2017-06-16T22:05:48.645Z,1023.06
2017-06-16T22:06:58.972Z,1023.05
2017-06-16T22:08:08.668Z,1023.02
2017-06-16T22:09:18.363Z,1023.01
2017-06-16T22:10:27.739Z,1022.99
2017-06-16T22:11:38.061Z,1022.93
2017-06-16T22:12:48.076Z,1022.95
2017-06-16T22:13:58.082Z,1022.97
2017-06-16T22:15:08.086Z,1022.98
2017-06-16T22:16:17.464Z,1022.99
2017-06-16T22:17:27.475Z,1022.99
2017-06-16T22:18:37.481Z,1023
2017-06-16T22:19:47.487Z,1022.96
2017-06-16T22:20:56.554Z,1022.97
2017-06-16T22:22:06.560Z,1022.99
2017-06-16T22:23:16.566Z,1022.97
2017-06-16T22:24:26.258Z,1022.97
2017-06-16T22:25:36.263Z,1022.97
2017-06-16T22:26:45.955Z,1022.94
2017-06-16T22:27:55.970Z,1022.98
2017-06-16T22:29:05.664Z,1022.96
2017-06-16T22:30:15.986Z,1022.93
2017-06-16T22:31:26.309Z,1022.99
2017-06-16T22:32:36.318Z,1023.01
2017-06-16T22:33:45.693Z,1023.03
2017-06-16T22:34:55.698Z,1023.02
2017-06-16T22:36:05.388Z,1023.01
2017-06-16T22:37:15.394Z,1023.03
2017-06-16T22:38:25.400Z,1023.02
2017-06-16T22:39:35.721Z,1023.03
2017-06-16T22:40:45.726Z,1022.96
2017-06-16T22:41:55.422Z,1022.96
2017-06-16T22:43:04.799Z,1022.96
2017-06-16T22:44:14.182Z,1022.91
2017-06-16T22:45:24.189Z,1022.89
2017-06-16T22:46:33.886Z,1022.93
2017-06-16T22:47:43.890Z,1022.89
2017-06-16T22:48:53.926Z,1022.89
2017-06-16T22:50:03.930Z,1022.89
2017-06-16T22:51:13.942Z,1022.93
2017-06-16T22:52:24.268Z,1022.91
2017-06-16T22:53:34.588Z,1022.89
2017-06-16T22:54:44.282Z,1022.9
2017-06-16T22:55:54.607Z,1022.91
2017-06-16T22:57:04.620Z,1022.88
2017-06-16T22:58:14.633Z,1022.89
2017-06-16T22:59:24.951Z,1022.86
2017-06-16T23:00:34.972Z,1022.84
2017-06-16T23:01:44.982Z,1022.85
2017-06-16T23:02:54.988Z,1022.89
2017-06-16T23:04:04.995Z,1022.85
2017-06-16T23:05:15.011Z,1022.86
2017-06-16T23:06:24.702Z,1022.86
2017-06-16T23:07:34.082Z,1022.87
2017-06-16T23:08:43.777Z,1022.85
2017-06-16T23:09:53.792Z,1022.86
2017-06-16T23:11:03.488Z,1022.89
2017-06-16T23:12:13.815Z,1022.87
2017-06-16T23:13:24.144Z,1022.91
2017-06-16T23:14:33.524Z,1022.88
2017-06-16T23:15:43.213Z,1022.9
2017-06-16T23:16:52.903Z,1022.93
2017-06-16T23:18:02.278Z,1022.95
2017-06-16T23:19:11.657Z,1022.95
2017-06-16T23:20:21.977Z,1022.98
2017-06-16T23:21:31.982Z,1022.97
2017-06-16T23:22:41.676Z,1022.98
2017-06-16T23:23:51.687Z,1022.96
2017-06-16T23:25:01.698Z,1022.91
2017-06-16T23:26:11.706Z,1022.98
2017-06-16T23:27:21.091Z,1022.94
2017-06-16T23:28:30.479Z,1022.96
2017-06-16T23:29:40.487Z,1022.98
2017-06-16T23:30:50.181Z,1023.01
2017-06-16T23:32:00.189Z,1022.97
2017-06-16T23:33:10.197Z,1023
2017-06-16T23:34:20.200Z,1022.99
2017-06-16T23:35:30.205Z,1023.03
2017-06-16T23:36:39.899Z,1022.98
2017-06-16T23:37:49.278Z,1022.99
2017-06-16T23:38:58.656Z,1022.92
2017-06-16T23:40:08.665Z,1022.95
2017-06-16T23:41:18.674Z,1022.9
2017-06-16T23:42:28.365Z,1022.94
2017-06-16T23:43:38.375Z,1022.99
2017-06-16T23:44:47.753Z,1022.92
2017-06-16T23:45:57.756Z,1022.91
2017-06-16T23:47:07.451Z,1022.92
2017-06-16T23:48:17.462Z,1022.97
2017-06-16T23:49:27.156Z,1022.98
2017-06-16T23:50:37.168Z,1022.96
2017-06-16T23:51:46.873Z,1022.98
2017-06-16T23:52:56.880Z,1022.98
2017-06-16T23:54:05.946Z,1022.99
2017-06-16T23:55:15.641Z,1022.99
2017-06-16T23:56:25.336Z,1022.95
2017-06-16T23:57:35.659Z,1022.91
2017-06-16T23:58:45.037Z,1022.9
2017-06-16T23:59:54.735Z,1022.94
